Time;durP1;ratioP1;P1;durP2;ratioP2;P2;SDS_P1;SDS_P2;PMS_P1;PMS_P2;Temp;Humidity;BMP_temperature;BMP_pressure;BME280_temperature;BME280_humidity;BME280_pressure;Samples;Min_cycle;Max_cycle;Signal;HPM_P1;HPM_P2
2021/03/20 05:38:11;;;;;;;33.42;26.17;;;;;;;2.00;83.92;94767.34;6187796;22;20051;-83
2021/03/20 09:41:57;;;;;;;9.50;8.70;;;;;;;5.62;69.35;94779.59;6108154;23;20053;-82
2021/03/20 09:44:24;;;;;;;10.30;9.55;;;;;;;5.78;72.46;94769.47;6112598;23;20017;-85
2021/03/20 09:49:25;;;;;;;8.90;8.30;;;;;;;5.69;70.49;94784.97;6196903;23;20021;-85
2021/03/20 09:54:31;;;;;;;9.07;8.48;;;;;;;6.08;69.70;94777.81;6183853;23;20016;-85
2021/03/20 10:26:04;;;;;;;9.75;9.05;;;;;;;5.84;71.18;94742.41;6131307;23;20047;-84
2021/03/20 11:08:35;;;;;;;7.38;6.88;;;;;;;5.97;65.06;94696.63;6138298;23;20262;-84
2021/03/20 11:35:13;;;;;;;7.72;7.22;;;;;;;6.06;64.59;94677.72;6198092;23;19916;-82
2021/03/20 11:56:31;;;;;;;10.43;9.52;;;;;;;5.79;72.96;94694.03;6105416;23;20051;-81
2021/03/20 11:59:01;;;;;;;10.88;9.88;;;;;;;5.37;73.54;94681.91;6150432;23;20028;-83
2021/03/20 12:04:11;;;;;;;10.90;9.95;;;;;;;5.19;73.66;94698.13;6153844;23;20025;-84
2021/03/20 12:06:37;;;;;;;12.18;11.18;;;;;;;5.12;74.83;94693.69;6154471;23;20045;-84
2021/03/20 12:11:46;;;;;;;9.25;8.55;;;;;;;5.37;72.46;94687.84;6136844;23;20021;-85
2021/03/20 12:16:47;;;;;;;12.30;10.90;;;;;;;5.70;72.67;94683.84;6154854;22;20116;-83
2021/03/20 12:19:19;;;;;;;8.35;7.75;;;;;;;5.23;73.02;94666.06;6170485;23;20013;-81
2021/03/20 12:22:00;;;;;;;8.52;7.90;;;;;;;5.10;72.22;94670.75;6166217;23;20017;-80
2021/03/20 12:24:33;;;;;;;9.40;8.60;;;;;;;5.19;71.94;94669.09;6140227;23;20024;-81
2021/03/20 12:27:24;;;;;;;10.40;9.50;;;;;;;5.39;73.16;94651.78;6146430;23;20051;-84
2021/03/20 12:29:50;;;;;;;8.38;7.78;;;;;;;5.45;70.72;94639.16;6171874;23;20009;-84
2021/03/20 12:32:39;;;;;;;9.55;8.75;;;;;;;5.64;72.72;94649.28;6155500;23;20045;-81
2021/03/20 12:35:20;;;;;;;10.10;9.30;;;;;;;5.91;71.26;94671.50;6136165;23;20013;-85
2021/03/20 12:38:03;;;;;;;8.57;7.82;;;;;;;5.93;71.09;94661.09;6183041;23;19993;-85
2021/03/20 12:40:28;;;;;;;8.40;7.78;;;;;;;6.06;70.29;94634.03;6135253;23;20009;-84
2021/03/20 12:42:54;;;;;;;8.30;7.65;;;;;;;6.35;69.76;94656.88;6156764;23;20013;-78
2021/03/20 12:45:24;;;;;;;6.57;6.07;;;;;;;5.77;69.52;94643.75;6172245;23;20013;-79
2021/03/20 12:47:50;;;;;;;7.00;6.50;;;;;;;5.79;70.09;94650.34;6136834;23;20045;-80
2021/03/20 12:50:15;;;;;;;9.75;9.05;;;;;;;5.98;70.09;94644.25;6198083;23;20343;-80
2021/03/20 12:52:41;;;;;;;7.15;6.55;;;;;;;5.80;70.55;94644.28;6185011;23;20014;-80
2021/03/20 12:55:08;;;;;;;7.10;6.60;;;;;;;5.80;70.98;94640.88;6199072;23;20006;-81
2021/03/20 12:57:34;;;;;;;6.93;6.43;;;;;;;5.70;70.20;94638.41;6167507;23;20033;-81
2021/03/20 13:00:00;;;;;;;6.88;6.38;;;;;;;5.72;71.06;94643.38;6202770;23;20001;-82
2021/03/20 13:02:26;;;;;;;11.00;10.05;;;;;;;5.92;71.28;94638.91;6178820;23;20058;-82
2021/03/20 13:04:51;;;;;;;7.93;7.32;;;;;;;5.59;70.38;94645.53;6146859;23;20002;-81
2021/03/20 13:07:18;;;;;;;9.63;8.82;;;;;;;5.65;70.36;94658.56;6198993;23;20080;-78
2021/03/20 13:09:43;;;;;;;8.05;7.45;;;;;;;5.36;70.21;94654.66;6183741;23;20131;-81
2021/03/20 13:12:10;;;;;;;7.78;7.18;;;;;;;5.22;70.39;94649.06;6190748;23;20005;-80
2021/03/20 13:14:35;;;;;;;9.40;8.60;;;;;;;5.63;71.15;94657.94;6173986;23;20044;-84
2021/03/20 13:17:05;;;;;;;9.43;8.52;;;;;;;5.30;71.42;94658.59;6200773;23;20386;-83
2021/03/20 13:19:31;;;;;;;10.73;9.82;;;;;;;5.45;72.26;94651.19;6203489;23;19994;-82
2021/03/20 13:21:57;;;;;;;9.68;8.88;;;;;;;5.25;71.82;94650.53;6154968;23;20006;-80
2021/03/20 13:24:23;;;;;;;10.18;9.38;;;;;;;5.50;71.43;94634.38;6106545;22;20033;-84
2021/03/20 13:26:49;;;;;;;11.15;10.20;;;;;;;5.56;70.48;94630.41;6159412;23;19993;-85
2021/03/20 13:29:15;;;;;;;9.50;8.80;;;;;;;5.65;70.47;94648.31;6133308;23;20057;-84
2021/03/20 13:31:41;;;;;;;7.82;7.22;;;;;;;5.62;70.57;94630.63;6158275;23;20037;-84
2021/03/20 13:34:06;;;;;;;8.20;7.43;;;;;;;5.61;71.44;94649.56;6133311;23;19989;-82
2021/03/20 13:36:32;;;;;;;8.57;7.97;;;;;;;5.45;72.23;94634.03;6181026;23;20036;-85
2021/03/20 13:38:58;;;;;;;7.22;6.63;;;;;;;5.03;73.29;94638.13;6155356;23;20069;-82
2021/03/20 13:41:23;;;;;;;8.35;7.65;;;;;;;5.00;74.64;94641.78;6128252;23;20021;-82
2021/03/20 13:43:49;;;;;;;10.82;9.93;;;;;;;5.09;76.45;94658.06;6105907;23;20017;-81
2021/03/20 13:46:15;;;;;;;10.40;9.35;;;;;;;4.85;77.03;94653.47;6150084;23;20005;-83
2021/03/20 13:48:40;;;;;;;8.77;8.00;;;;;;;4.68;78.75;94660.19;6127171;23;20016;-75
2021/03/20 13:51:08;;;;;;;10.13;9.25;;;;;;;4.79;79.61;94661.75;6129598;23;20001;-75
2021/03/20 13:53:34;;;;;;;8.48;7.78;;;;;;;4.63;78.11;94654.66;6153293;23;20419;-75
2021/03/20 13:56:00;;;;;;;9.77;8.98;;;;;;;4.59;79.00;94661.03;6154276;23;20028;-75
2021/03/20 13:58:26;;;;;;;11.02;10.13;;;;;;;4.47;81.34;94661.34;6153900;23;20011;-76
2021/03/20 14:00:54;;;;;;;10.75;9.85;;;;;;;4.43;82.09;94670.28;6153846;23;20001;-76
2021/03/20 14:03:21;;;;;;;10.70;9.93;;;;;;;4.48;81.10;94666.34;6106790;23;20083;-75
2021/03/20 14:05:46;;;;;;;10.98;10.07;;;;;;;4.43;82.49;94665.94;6153698;23;20008;-76
2021/03/20 14:08:12;;;;;;;11.20;10.20;;;;;;;4.40;83.25;94658.53;6154638;23;20005;-75
2021/03/20 14:10:39;;;;;;;11.35;10.35;;;;;;;4.33;84.26;94654.13;6153516;23;20067;-76
2021/03/20 14:13:05;;;;;;;12.27;11.07;;;;;;;4.28;83.28;94651.16;6130179;23;20019;-75
2021/03/20 14:15:31;;;;;;;11.80;10.80;;;;;;;4.08;83.99;94643.53;6128872;23;20032;-76
2021/03/20 14:17:57;;;;;;;12.52;11.32;;;;;;;4.06;84.09;94639.50;6105389;23;20013;-75
2021/03/20 14:20:24;;;;;;;13.55;12.38;;;;;;;4.10;84.05;94639.09;6129300;23;20031;-75
2021/03/20 14:22:50;;;;;;;12.15;10.95;;;;;;;4.03;84.41;94632.09;6153643;23;20048;-75
2021/03/20 14:25:15;;;;;;;12.65;11.50;;;;;;;4.21;85.28;94638.09;6161962;23;20021;-75
2021/03/20 14:27:41;;;;;;;14.32;13.15;;;;;;;4.15;85.59;94641.22;6177418;23;20491;-75
2021/03/20 14:30:07;;;;;;;9.57;8.68;;;;;;;3.87;85.95;94637.81;6152925;23;20008;-75
2021/03/20 14:32:32;;;;;;;10.25;9.35;;;;;;;3.57;87.52;94635.41;6151279;23;20016;-75
2021/03/20 14:34:58;;;;;;;10.30;9.40;;;;;;;3.56;88.67;94638.94;6178516;23;20339;-75
2021/03/20 14:37:23;;;;;;;8.52;7.82;;;;;;;3.54;88.18;94641.63;6178037;23;20009;-75
2021/03/20 14:39:49;;;;;;;7.43;6.70;;;;;;;3.29;88.27;94649.03;6178450;23;20042;-74
2021/03/20 14:42:14;;;;;;;9.63;8.82;;;;;;;3.50;89.49;94647.16;6152119;23;20001;-75
2021/03/20 14:44:40;;;;;;;8.82;8.13;;;;;;;3.30;89.16;94650.66;6178052;23;20005;-75
2021/03/20 14:47:05;;;;;;;8.90;8.20;;;;;;;3.41;88.70;94651.31;6177669;23;20005;-75
2021/03/20 14:49:31;;;;;;;13.20;7.97;;;;;;;3.54;88.35;94649.28;6176010;23;20008;-75
2021/03/20 14:51:56;;;;;;;8.80;8.00;;;;;;;3.63;88.12;94645.91;6177648;23;20442;-75
2021/03/20 14:54:22;;;;;;;9.18;8.48;;;;;;;3.55;88.92;94642.44;6176011;23;20449;-76
2021/03/20 14:56:48;;;;;;;9.65;8.85;;;;;;;3.59;89.03;94647.16;6178705;23;20001;-75
2021/03/20 14:59:13;;;;;;;9.15;8.35;;;;;;;3.07;90.13;94648.34;6179176;23;20394;-75
2021/03/20 15:01:39;;;;;;;8.90;8.20;;;;;;;3.37;90.75;94649.19;6150361;23;20414;-75
2021/03/20 15:04:04;;;;;;;9.02;8.27;;;;;;;3.26;90.59;94639.06;6178155;23;20012;-74
2021/03/20 15:06:30;;;;;;;7.30;6.70;;;;;;;2.94;89.87;94636.75;6177256;23;20068;-74
2021/03/20 15:08:55;;;;;;;9.52;8.70;;;;;;;2.81;91.00;94641.31;6177972;23;20006;-74
2021/03/20 15:11:21;;;;;;;11.98;10.98;;;;;;;3.07;91.50;94637.31;6176534;23;20420;-75
2021/03/20 15:13:46;;;;;;;9.65;8.85;;;;;;;2.79;91.26;94641.47;6178107;23;20083;-76
2021/03/20 15:16:12;;;;;;;9.52;8.73;;;;;;;2.91;91.55;94637.03;6179862;23;20001;-75
2021/03/20 15:18:39;;;;;;;8.30;7.60;;;;;;;2.99;91.35;94637.16;6181077;23;20020;-75
2021/03/20 15:21:07;;;;;;;9.88;9.00;;;;;;;3.05;90.31;94645.09;6179390;23;20092;-75
2021/03/20 15:23:34;;;;;;;9.65;8.85;;;;;;;2.96;91.38;94650.22;6128602;23;20382;-75
2021/03/20 15:26:00;;;;;;;10.43;9.43;;;;;;;2.74;91.33;94650.44;6147289;23;20447;-76
2021/03/20 15:28:26;;;;;;;10.57;9.68;;;;;;;2.86;91.28;94651.97;6178216;23;20431;-75
2021/03/20 15:30:52;;;;;;;9.63;8.88;;;;;;;2.78;90.97;94650.06;6154286;23;20036;-76
2021/03/20 15:33:17;;;;;;;9.48;8.68;;;;;;;2.74;91.90;94648.69;6153143;23;20008;-76
2021/03/20 15:35:43;;;;;;;10.50;9.60;;;;;;;2.62;91.40;94647.19;6154758;23;20015;-76
2021/03/20 15:38:09;;;;;;;12.82;11.70;;;;;;;2.78;91.76;94641.56;6154318;23;20060;-76
2021/03/20 15:40:39;;;;;;;13.48;12.30;;;;;;;2.77;91.63;94640.75;6177426;23;20387;-76
2021/03/20 15:43:06;;;;;;;11.20;10.30;;;;;;;2.64;91.05;94641.00;6180245;23;20073;-76
2021/03/20 15:45:32;;;;;;;10.88;10.02;;;;;;;2.57;91.67;94639.91;6153362;23;20009;-76
2021/03/20 15:47:57;;;;;;;10.80;9.90;;;;;;;2.50;91.89;94641.38;6155356;23;20375;-76
2021/03/20 15:50:25;;;;;;;10.05;9.13;;;;;;;2.61;92.28;94637.91;6179394;23;20015;-76
2021/03/20 15:52:51;;;;;;;12.20;11.15;;;;;;;2.95;90.79;94641.75;6177793;23;20439;-76
2021/03/20 15:55:17;;;;;;;8.73;8.02;;;;;;;2.39;92.03;94654.25;6126858;23;20005;-76
2021/03/20 15:57:42;;;;;;;10.05;9.25;;;;;;;2.51;92.16;94653.19;6153954;23;20009;-76
2021/03/20 16:00:08;;;;;;;6.85;6.35;;;;;;;2.50;91.37;94646.50;6180654;23;20024;-76
2021/03/20 16:02:37;;;;;;;8.82;8.13;;;;;;;2.67;91.22;94658.63;6177725;23;20001;-77
2021/03/20 16:05:04;;;;;;;8.52;7.82;;;;;;;2.38;92.10;94657.72;6178783;23;20001;-76
2021/03/20 16:07:29;;;;;;;7.03;6.45;;;;;;;2.42;91.76;94665.94;6152378;23;20363;-76
2021/03/20 16:09:54;;;;;;;6.78;6.28;;;;;;;2.38;92.19;94662.84;6179334;23;20012;-76
2021/03/20 16:12:20;;;;;;;7.50;6.90;;;;;;;2.26;92.37;94663.88;6178656;23;20429;-77
2021/03/20 16:14:45;;;;;;;7.53;6.90;;;;;;;2.12;92.89;94669.31;6180843;23;20336;-77
2021/03/20 16:17:11;;;;;;;7.35;6.75;;;;;;;2.28;92.02;94669.66;6178564;23;20005;-76
2021/03/20 16:19:36;;;;;;;8.43;7.72;;;;;;;2.20;92.78;94672.03;6177863;23;20016;-77
2021/03/20 16:22:02;;;;;;;8.05;7.43;;;;;;;2.05;92.44;94678.44;6179135;23;20005;-77
2021/03/20 16:24:28;;;;;;;9.10;8.35;;;;;;;2.21;92.26;94673.66;6178737;23;20097;-77
2021/03/20 16:26:53;;;;;;;8.50;7.80;;;;;;;2.10;92.53;94671.19;6178622;23;20347;-77
2021/03/20 16:29:19;;;;;;;10.10;9.10;;;;;;;2.05;92.75;94668.22;6178432;23;20461;-77
2021/03/20 16:31:45;;;;;;;9.77;9.07;;;;;;;2.17;92.43;94666.38;6179454;23;20001;-77
2021/03/20 16:34:10;;;;;;;8.77;7.97;;;;;;;1.82;93.32;94664.19;6179604;23;20005;-77
2021/03/20 16:36:36;;;;;;;9.35;8.45;;;;;;;1.82;93.56;94666.72;6178410;23;20012;-77
2021/03/20 16:39:02;;;;;;;9.27;8.48;;;;;;;1.90;93.22;94662.59;6153548;23;20063;-77
2021/03/20 16:41:31;;;;;;;10.10;9.27;;;;;;;1.82;94.07;94661.63;6152971;23;20071;-77
2021/03/20 16:43:56;;;;;;;9.73;8.88;;;;;;;1.81;93.69;94665.09;6178900;23;20079;-76
2021/03/20 16:46:22;;;;;;;8.70;8.00;;;;;;;1.77;94.19;94666.28;6178926;23;20009;-77
2021/03/20 16:48:47;;;;;;;8.48;7.78;;;;;;;1.86;93.62;94652.78;6177940;23;20005;-77
2021/03/20 16:51:13;;;;;;;8.52;7.82;;;;;;;1.84;93.22;94664.84;6177647;23;20007;-78
2021/03/20 16:53:39;;;;;;;8.90;8.20;;;;;;;1.87;93.75;94667.97;6153868;23;20417;-77
2021/03/20 16:56:05;;;;;;;8.65;7.95;;;;;;;2.00;93.23;94662.66;6180192;23;20115;-77
2021/03/20 16:58:31;;;;;;;8.30;7.60;;;;;;;2.01;93.21;94670.22;6151579;23;20013;-78
2021/03/20 17:00:56;;;;;;;7.90;7.20;;;;;;;1.88;92.95;94666.22;6180044;23;20005;-78
2021/03/20 17:03:22;;;;;;;7.38;6.78;;;;;;;1.90;93.45;94665.16;6179618;23;20005;-77
2021/03/20 17:05:48;;;;;;;10.18;9.32;;;;;;;1.92;93.77;94668.41;6177963;23;20092;-78
2021/03/20 17:08:16;;;;;;;9.32;8.52;;;;;;;1.93;93.34;94672.56;6179530;23;19997;-77
2021/03/20 17:10:41;;;;;;;7.38;6.78;;;;;;;1.78;93.12;94681.47;6154172;23;20005;-78
2021/03/20 17:13:07;;;;;;;6.68;6.18;;;;;;;1.94;93.22;94673.38;6160130;23;20433;-77
2021/03/20 17:15:32;;;;;;;6.78;6.28;;;;;;;1.94;93.19;94668.28;6177612;23;20758;-78
2021/03/20 17:17:58;;;;;;;7.68;7.07;;;;;;;1.88;92.84;94672.16;6153082;23;20015;-78
2021/03/20 17:20:31;;;;;;;8.63;7.82;;;;;;;1.77;93.64;94673.94;6152726;23;20009;-78
2021/03/20 17:22:57;;;;;;;6.38;5.88;;;;;;;1.83;92.99;94674.25;6153580;23;20005;-77
2021/03/20 17:25:23;;;;;;;5.70;5.22;;;;;;;1.73;93.16;94673.41;6152133;23;20092;-77
2021/03/20 17:27:52;;;;;;;5.63;5.22;;;;;;;1.71;93.33;94674.44;6153275;23;20016;-78
2021/03/20 17:30:19;;;;;;;5.80;5.40;;;;;;;1.64;93.95;94670.78;6178295;23;20013;-78
2021/03/20 17:32:45;;;;;;;6.80;6.30;;;;;;;1.64;93.82;94660.56;6150054;23;20009;-77
2021/03/20 17:35:11;;;;;;;5.25;4.85;;;;;;;1.67;93.76;94663.66;6151388;23;20063;-78
2021/03/20 17:37:36;;;;;;;5.43;4.93;;;;;;;1.59;94.30;94660.94;6127931;23;20016;-78
2021/03/20 17:40:04;;;;;;;5.80;5.13;;;;;;;1.64;94.28;94674.13;6179018;23;20008;-79
2021/03/20 17:42:30;;;;;;;5.78;5.38;;;;;;;1.88;93.38;94676.44;6179048;23;20221;-79
2021/03/20 17:44:55;;;;;;;4.90;4.50;;;;;;;1.71;93.49;94675.25;6175350;23;20340;-79
2021/03/20 17:47:21;;;;;;;9.13;5.13;;;;;;;1.82;92.97;94676.94;6149162;23;20008;-79
2021/03/20 17:49:46;;;;;;;4.80;4.40;;;;;;;1.68;93.41;94679.78;6178016;23;20001;-78
2021/03/20 17:52:12;;;;;;;4.55;4.25;;;;;;;1.81;93.74;94677.88;6176711;23;20005;-78
2021/03/20 17:54:37;;;;;;;4.13;3.83;;;;;;;1.81;93.50;94682.97;6153556;23;20328;-78
2021/03/20 17:57:03;;;;;;;6.70;6.10;;;;;;;1.88;92.94;94684.09;6177218;23;20432;-79
2021/03/20 17:59:29;;;;;;;4.97;4.57;;;;;;;1.73;93.41;94677.69;6152678;23;20009;-78
2021/03/20 18:01:54;;;;;;;5.00;4.60;;;;;;;1.76;93.84;94673.16;6178311;23;20035;-78
2021/03/20 18:04:21;;;;;;;5.25;4.85;;;;;;;1.61;93.75;94679.47;6177586;23;20008;-79
2021/03/20 18:06:47;;;;;;;5.18;4.80;;;;;;;1.64;93.79;94673.34;6182097;23;20031;-79
2021/03/20 18:09:12;;;;;;;4.65;4.25;;;;;;;1.52;93.89;94678.47;6180776;23;20435;-79
2021/03/20 18:11:38;;;;;;;4.50;4.18;;;;;;;1.53;93.88;94684.41;6137168;23;20004;-81
2021/03/20 18:14:04;;;;;;;4.97;4.57;;;;;;;1.56;93.79;94679.03;6184656;23;20005;-79
2021/03/20 18:16:29;;;;;;;5.80;5.20;;;;;;;1.46;94.00;94686.63;6186970;23;20009;-80
2021/03/20 18:18:55;;;;;;;4.95;4.55;;;;;;;1.60;93.72;94677.88;6189026;23;20009;-80
2021/03/20 18:21:21;;;;;;;6.07;5.57;;;;;;;1.49;93.78;94691.47;6168095;23;20001;-81
2021/03/20 18:23:46;;;;;;;9.32;8.60;;;;;;;1.64;93.91;94684.31;6169604;23;20392;-80
2021/03/20 18:26:12;;;;;;;6.68;6.07;;;;;;;1.77;93.00;94691.78;6169742;23;20013;-81
2021/03/20 18:28:39;;;;;;;11.48;10.50;;;;;;;1.76;92.90;94680.81;6194208;23;20005;-80
2021/03/20 18:31:07;;;;;;;7.10;6.53;;;;;;;1.61;93.57;94679.47;6164015;23;20009;-81
2021/03/20 18:33:33;;;;;;;8.18;7.57;;;;;;;1.39;93.53;94682.94;6161975;23;20012;-80
2021/03/20 18:35:58;;;;;;;7.65;7.05;;;;;;;1.62;93.89;94681.09;6152410;23;20005;-79
2021/03/20 18:38:32;;;;;;;10.30;9.50;;;;;;;1.71;93.31;94679.53;6153224;23;20328;-79
2021/03/20 18:40:58;;;;;;;6.40;5.90;;;;;;;1.73;92.49;94680.25;6127797;23;20013;-78
2021/03/20 18:43:24;;;;;;;6.03;5.53;;;;;;;1.53;92.77;94682.66;6127934;23;20443;-78
2021/03/20 18:45:50;;;;;;;8.23;7.53;;;;;;;1.69;92.88;94672.03;6177774;23;20008;-77
2021/03/20 18:48:16;;;;;;;4.93;4.60;;;;;;;1.65;92.87;94672.38;6151689;23;20449;-77
2021/03/20 18:50:41;;;;;;;3.88;3.58;;;;;;;1.56;93.63;94687.50;6129942;23;20423;-77
2021/03/20 18:53:07;;;;;;;5.50;5.10;;;;;;;1.63;93.11;94681.91;6129169;23;20009;-78
2021/03/20 18:55:35;;;;;;;4.40;4.10;;;;;;;1.64;93.01;94684.31;6154246;23;20005;-77
2021/03/20 18:58:01;;;;;;;4.45;4.15;;;;;;;1.70;93.29;94677.94;6154418;23;20009;-77
2021/03/20 19:00:31;;;;;;;5.10;4.70;;;;;;;1.64;92.94;94674.13;6179633;23;20415;-78
2021/03/20 19:02:57;;;;;;;5.00;4.60;;;;;;;1.73;92.65;94677.69;6130604;23;20063;-78
2021/03/20 19:05:22;;;;;;;6.93;6.32;;;;;;;1.83;92.33;94684.44;6129955;23;20013;-78
2021/03/20 19:07:48;;;;;;;5.00;4.60;;;;;;;1.79;92.44;94689.94;6153981;23;20001;-79
2021/03/20 19:10:15;;;;;;;4.90;3.97;;;;;;;1.73;92.48;94685.34;6129255;23;20009;-78
2021/03/20 19:12:41;;;;;;;4.35;4.05;;;;;;;1.64;92.69;94684.31;6155157;23;20009;-78
2021/03/20 19:15:07;;;;;;;6.35;5.85;;;;;;;1.64;93.30;94674.13;6153576;23;20474;-78
2021/03/20 19:17:33;;;;;;;4.22;3.92;;;;;;;1.70;93.02;94672.84;6178934;23;20458;-78
2021/03/20 19:19:58;;;;;;;4.13;3.83;;;;;;;1.53;92.88;94675.00;6153166;23;20001;-79
2021/03/20 19:22:24;;;;;;;6.25;5.75;;;;;;;1.69;92.66;94668.66;6154538;23;20449;-78
2021/03/20 19:24:50;;;;;;;5.50;5.10;;;;;;;1.65;92.97;94672.38;6129164;23;20025;-78
2021/03/20 19:27:15;;;;;;;4.88;4.50;;;;;;;1.75;92.25;94675.81;6178890;23;20433;-78
2021/03/20 19:29:41;;;;;;;4.70;4.40;;;;;;;1.79;92.44;94672.91;6179235;23;20009;-78
2021/03/20 19:32:08;;;;;;;3.30;3.10;;;;;;;1.50;92.55;94667.59;6180331;23;20005;-78
2021/03/20 19:34:33;;;;;;;3.92;3.63;;;;;;;1.71;92.66;94664.22;6179453;23;20012;-78
2021/03/20 19:36:59;;;;;;;5.13;4.72;;;;;;;1.71;92.77;94672.69;6177883;23;20178;-78
2021/03/20 19:39:25;;;;;;;5.70;5.30;;;;;;;1.70;92.55;94678.75;6180841;23;20005;-78
2021/03/20 19:41:50;;;;;;;4.75;4.43;;;;;;;1.72;92.50;94673.50;6153977;23;20482;-78
2021/03/20 19:44:17;;;;;;;5.53;5.13;;;;;;;1.78;92.78;94680.66;6155026;23;20466;-78
2021/03/20 19:46:44;;;;;;;4.57;4.28;;;;;;;1.77;92.45;94681.59;6178277;23;20001;-78
2021/03/20 19:49:10;;;;;;;3.28;3.08;;;;;;;1.65;92.92;94685.13;6154223;23;20005;-78
2021/03/20 19:51:36;;;;;;;3.67;3.38;;;;;;;1.78;92.37;94680.66;6154689;23;20459;-78
2021/03/20 19:54:03;;;;;;;3.20;3.00;;;;;;;1.70;92.75;94683.84;6178903;23;20055;-78
2021/03/20 19:56:29;;;;;;;4.57;4.28;;;;;;;1.78;92.57;94685.78;6180464;23;20477;-78
2021/03/20 19:58:54;;;;;;;7.47;6.97;;;;;;;1.69;92.83;94683.97;6177871;23;20001;-78
2021/03/20 20:01:22;;;;;;;3.97;3.67;;;;;;;1.80;92.20;94678.81;6129592;23;20023;-77
2021/03/20 20:03:47;;;;;;;3.08;2.88;;;;;;;1.77;92.35;94673.94;6153948;23;20005;-78
2021/03/20 20:06:13;;;;;;;3.75;3.50;;;;;;;1.70;92.41;94683.03;6154658;23;20446;-78
2021/03/20 20:08:39;;;;;;;3.30;3.10;;;;;;;1.81;92.29;94680.41;6153426;23;20028;-77
2021/03/20 20:11:05;;;;;;;2.65;2.45;;;;;;;1.76;91.87;94678.25;6178505;23;20288;-77
2021/03/20 20:13:34;;;;;;;4.53;4.22;;;;;;;1.86;91.61;94670.66;6153724;23;20378;-78
2021/03/20 20:15:59;;;;;;;3.20;3.00;;;;;;;1.47;92.39;94678.06;6154064;23;20000;-77
2021/03/20 20:18:40;;;;;;;3.60;3.30;;;;;;;1.72;92.26;94683.72;6154157;23;20351;-77
2021/03/20 20:21:06;;;;;;;3.97;3.67;;;;;;;1.50;93.53;94674.44;6156662;23;20001;-77
2021/03/20 20:23:31;;;;;;;3.90;3.60;;;;;;;1.57;92.94;94678.13;6178721;23;20009;-77
2021/03/20 20:25:57;;;;;;;5.43;4.95;;;;;;;1.87;92.10;94672.25;6177506;23;20013;-76
2021/03/20 20:28:25;;;;;;;4.97;4.57;;;;;;;1.73;92.58;94673.41;6152289;23;20017;-77
2021/03/20 20:30:52;;;;;;;3.47;3.28;;;;;;;1.81;92.08;94671.03;6152474;23;20076;-77
2021/03/20 20:33:17;;;;;;;6.88;6.28;;;;;;;1.90;91.75;94666.91;6176960;23;20063;-77
2021/03/20 20:35:43;;;;;;;4.90;4.55;;;;;;;1.83;91.90;94669.13;6176957;23;20336;-78
2021/03/20 20:38:08;;;;;;;5.03;4.63;;;;;;;1.82;92.21;94667.53;6151721;23;20020;-77
2021/03/20 20:40:34;;;;;;;4.85;4.53;;;;;;;1.83;92.21;94670.91;6175963;23;20001;-77
2021/03/20 20:43:29;;;;;;;4.40;4.00;;;;;;;1.89;92.30;94663.56;6175626;23;20005;-77
2021/03/20 20:46:00;;;;;;;3.80;3.50;;;;;;;1.75;92.34;94668.16;6154880;23;20001;-77
2021/03/20 20:48:26;;;;;;;3.08;2.88;;;;;;;1.74;92.20;94669.09;6176798;23;20085;-77
2021/03/20 20:50:52;;;;;;;4.32;3.92;;;;;;;1.77;92.53;94672.19;6151474;23;20076;-78
2021/03/20 20:53:17;;;;;;;4.97;4.57;;;;;;;1.87;92.44;94667.16;6152285;23;20505;-78
2021/03/20 20:55:44;;;;;;;7.30;6.63;;;;;;;1.76;92.40;94669.78;6127250;23;20001;-78
2021/03/20 20:58:10;;;;;;;9.63;8.73;;;;;;;1.80;92.63;94669.38;6152205;23;20016;-78
2021/03/20 21:00:37;;;;;;;32.40;22.55;;;;;;;1.88;92.30;94664.47;6150901;23;20001;-78
2021/03/20 21:03:03;;;;;;;34.67;27.73;;;;;;;1.82;92.39;94659.88;6176355;23;20017;-78
2021/03/20 21:05:28;;;;;;;26.35;21.00;;;;;;;1.76;92.72;94655.28;6175942;23;20551;-77
2021/03/20 21:07:54;;;;;;;36.95;32.80;;;;;;;1.87;92.40;94665.41;6151897;23;20001;-77
2021/03/20 21:10:21;;;;;;;25.13;20.80;;;;;;;1.90;91.91;94657.50;6177738;23;20009;-78
2021/03/20 21:12:47;;;;;;;20.42;18.30;;;;;;;1.81;92.50;94650.59;6174553;23;20001;-78
2021/03/20 21:15:13;;;;;;;25.08;22.50;;;;;;;1.81;92.58;94649.78;6176146;23;20005;-77
2021/03/20 21:17:38;;;;;;;17.55;15.85;;;;;;;1.73;92.74;94640.22;6175841;23;20012;-77
2021/03/20 21:20:15;;;;;;;16.35;14.77;;;;;;;1.78;92.68;94637.28;6177619;23;20005;-78
2021/03/20 21:22:40;;;;;;;11.68;10.60;;;;;;;1.65;92.94;94644.31;6153140;23;20474;-78
2021/03/20 21:25:06;;;;;;;28.83;23.23;;;;;;;1.81;92.63;94634.47;6150995;23;20013;-78
2021/03/20 21:27:32;;;;;;;22.17;19.83;;;;;;;1.83;92.06;94637.72;6175732;23;20001;-78
2021/03/20 21:29:57;;;;;;;39.83;35.55;;;;;;;1.83;92.07;94635.19;6175448;23;20005;-78
2021/03/20 21:32:23;;;;;;;17.42;15.82;;;;;;;1.76;92.57;94631.50;6176546;23;20001;-77
2021/03/20 21:34:48;;;;;;;14.40;13.10;;;;;;;1.74;92.56;94629.06;6176826;23;20051;-77
2021/03/20 21:37:15;;;;;;;13.85;12.45;;;;;;;1.75;92.52;94625.59;6176391;23;20005;-77
2021/03/20 21:39:40;;;;;;;21.80;18.75;;;;;;;1.80;92.70;94620.13;6152554;23;20012;-79
2021/03/20 21:42:06;;;;;;;21.38;18.00;;;;;;;1.79;92.48;94626.16;6175300;23;20008;-78
2021/03/20 21:44:32;;;;;;;21.58;18.60;;;;;;;1.78;92.52;94621.97;6151035;23;20004;-77
2021/03/20 21:46:57;;;;;;;17.73;15.68;;;;;;;1.79;92.43;94631.25;6175496;23;20024;-77
2021/03/20 21:49:23;;;;;;;16.25;14.52;;;;;;;1.82;92.18;94619.03;6176412;23;20009;-78
2021/03/20 21:51:48;;;;;;;14.13;12.55;;;;;;;1.84;92.03;94624.81;6124939;23;19997;-79
2021/03/20 21:54:13;;;;;;;13.40;12.10;;;;;;;1.86;92.15;94617.84;6151522;23;20459;-79
2021/03/20 21:56:39;;;;;;;15.20;13.63;;;;;;;1.81;92.00;94617.41;6176846;23;20115;-77
2021/03/20 21:59:04;;;;;;;16.77;15.15;;;;;;;1.84;92.28;94617.16;6176067;23;20013;-77
